createdAt,value
2022-12-18T00:00:37.008Z,50.79
2022-12-18T00:01:37.078Z,51.75
2022-12-18T00:02:37.116Z,53.85
2022-12-18T00:03:37.448Z,52.18
2022-12-18T00:04:36.995Z,50.07
2022-12-18T00:05:36.991Z,51.60
2022-12-18T00:06:37.006Z,49.01
2022-12-18T00:07:37.004Z,49.68
2022-12-18T00:08:36.964Z,51.18
2022-12-18T00:09:40.344Z,50.48
2022-12-18T00:10:36.955Z,50.09
2022-12-18T00:11:36.962Z,52.37
2022-12-18T00:12:36.959Z,51.08
2022-12-18T00:13:37.310Z,48.92
2022-12-18T00:14:36.938Z,50.39
2022-12-18T00:15:36.928Z,50.46
2022-12-18T00:16:36.990Z,52.78
2022-12-18T00:17:36.931Z,53.10
2022-12-18T00:18:37.317Z,51.77
2022-12-18T00:19:36.905Z,52.29
2022-12-18T00:20:36.899Z,52.70
2022-12-18T00:21:36.891Z,50.97
2022-12-18T00:22:36.879Z,52.25
2022-12-18T00:23:37.329Z,50.49
2022-12-18T00:24:36.870Z,52.77
2022-12-18T00:25:36.867Z,51.13
2022-12-18T00:26:36.878Z,48.35
2022-12-18T00:27:36.856Z,51.36
2022-12-18T00:28:36.856Z,50.80
2022-12-18T00:29:36.862Z,50.30
2022-12-18T00:30:36.845Z,48.85
2022-12-18T00:31:36.906Z,52.67
2022-12-18T00:32:36.823Z,51.10
2022-12-18T00:33:37.226Z,51.96
2022-12-18T00:34:36.819Z,51.87
2022-12-18T00:35:36.817Z,49.04
2022-12-18T00:36:36.806Z,49.97
2022-12-18T00:37:36.804Z,52.96
2022-12-18T00:38:36.808Z,49.76
2022-12-18T00:39:36.802Z,52.04
2022-12-18T00:40:36.800Z,51.85
2022-12-18T00:41:36.782Z,50.18
2022-12-18T00:42:36.773Z,51.90
2022-12-18T00:43:37.296Z,50.64
2022-12-18T00:44:36.789Z,49.68
2022-12-18T00:45:36.796Z,50.44
2022-12-18T00:46:36.751Z,53.05
2022-12-18T00:47:36.743Z,50.36
2022-12-18T00:48:36.751Z,52.64
2022-12-18T00:49:36.731Z,50.29
2022-12-18T00:50:36.741Z,51.15
2022-12-18T00:51:36.716Z,49.68
2022-12-18T00:52:36.734Z,52.05
2022-12-18T00:53:37.030Z,53.19
2022-12-18T00:54:36.707Z,52.96
2022-12-18T00:55:36.695Z,50.11
2022-12-18T00:56:39.381Z,51.16
2022-12-18T00:57:37.692Z,50.74
2022-12-18T00:58:36.678Z,48.92
2022-12-18T00:59:36.693Z,50.00
2022-12-18T01:00:36.761Z,48.16
2022-12-18T01:01:36.736Z,49.24
2022-12-18T01:02:36.720Z,49.09
2022-12-18T01:03:36.896Z,50.53
2022-12-18T01:04:36.742Z,48.98
2022-12-18T01:05:36.638Z,50.34
2022-12-18T01:06:36.635Z,51.69
2022-12-18T01:07:36.631Z,51.74
2022-12-18T01:08:36.631Z,50.91
2022-12-18T01:09:36.631Z,51.32
2022-12-18T01:10:36.630Z,51.47
2022-12-18T01:11:36.600Z,51.97
2022-12-18T01:12:36.602Z,49.84
2022-12-18T01:13:37.016Z,51.58
2022-12-18T01:14:36.605Z,50.74
2022-12-18T01:15:36.578Z,50.65
2022-12-18T01:16:36.651Z,51.31
2022-12-18T01:17:36.562Z,49.41
2022-12-18T01:18:36.588Z,49.41
2022-12-18T01:19:36.575Z,50.51
2022-12-18T01:20:36.563Z,51.02
2022-12-18T01:21:36.550Z,48.67
2022-12-18T01:22:36.530Z,51.75
2022-12-18T01:23:37.003Z,51.13
2022-12-18T01:24:36.532Z,51.24
2022-12-18T01:25:36.544Z,49.50
2022-12-18T01:26:36.559Z,50.54
2022-12-18T01:27:36.513Z,51.20
2022-12-18T01:28:36.508Z,48.82
2022-12-18T01:29:36.499Z,49.91
2022-12-18T01:30:36.522Z,48.39
2022-12-18T01:31:36.548Z,48.89
2022-12-18T01:32:36.488Z,50.76
2022-12-18T01:33:36.822Z,51.27
2022-12-18T01:34:36.474Z,51.04
2022-12-18T01:35:36.468Z,51.18
2022-12-18T01:36:36.453Z,52.25
2022-12-18T01:37:36.494Z,49.98
2022-12-18T01:38:36.462Z,49.74
2022-12-18T01:39:36.434Z,49.93
2022-12-18T01:40:36.442Z,49.96
2022-12-18T01:41:36.432Z,50.88
2022-12-18T01:42:36.427Z,49.67
2022-12-18T01:43:36.852Z,48.60
2022-12-18T01:44:36.421Z,49.89
2022-12-18T01:45:36.436Z,49.18
2022-12-18T01:46:36.410Z,50.07
2022-12-18T01:47:36.402Z,50.74
2022-12-18T01:48:36.415Z,49.95
2022-12-18T01:49:36.390Z,51.03
2022-12-18T01:50:36.378Z,50.06
2022-12-18T01:51:36.374Z,49.84
2022-12-18T01:52:36.377Z,51.11
2022-12-18T01:53:36.725Z,48.87
2022-12-18T01:54:36.355Z,50.86
2022-12-18T01:55:36.362Z,49.05
2022-12-18T01:56:36.346Z,50.21
2022-12-18T01:57:36.330Z,49.91
2022-12-18T01:58:36.343Z,50.00
2022-12-18T01:59:36.335Z,50.64
2022-12-18T02:00:36.315Z,49.29
2022-12-18T02:01:36.457Z,48.78
2022-12-18T02:02:36.493Z,51.28
2022-12-18T02:03:36.761Z,53.20
2022-12-18T02:04:36.323Z,48.91
2022-12-18T02:05:36.301Z,49.33
2022-12-18T02:06:36.294Z,49.30
2022-12-18T02:07:36.282Z,50.18
2022-12-18T02:08:36.275Z,49.36
2022-12-18T02:09:36.278Z,49.94
2022-12-18T02:10:36.276Z,49.78
2022-12-18T02:11:36.258Z,48.88
2022-12-18T02:12:36.330Z,49.63
2022-12-18T02:13:37.543Z,49.58
2022-12-18T02:14:36.243Z,48.46
2022-12-18T02:15:36.251Z,48.40
2022-12-18T02:16:36.269Z,50.26
2022-12-18T02:17:36.222Z,49.07
2022-12-18T02:18:36.218Z,48.52
2022-12-18T02:19:36.213Z,50.10
2022-12-18T02:20:36.233Z,49.33
2022-12-18T02:21:36.203Z,49.00
2022-12-18T02:22:36.202Z,48.41
2022-12-18T02:23:36.679Z,49.97
2022-12-18T02:24:36.178Z,48.60
2022-12-18T02:25:36.203Z,48.90
2022-12-18T02:26:36.194Z,48.73
2022-12-18T02:27:36.171Z,48.24
2022-12-18T02:28:36.260Z,51.17
2022-12-18T02:29:36.162Z,49.02
2022-12-18T02:30:36.191Z,50.29
2022-12-18T02:31:36.152Z,50.03
2022-12-18T02:32:36.147Z,49.02
2022-12-18T02:33:36.574Z,48.91
2022-12-18T02:34:36.134Z,49.21
2022-12-18T02:35:36.156Z,50.04
2022-12-18T02:36:36.127Z,49.03
2022-12-18T02:37:36.159Z,48.59
2022-12-18T02:38:36.115Z,50.42
2022-12-18T02:39:36.103Z,49.60
2022-12-18T02:40:36.153Z,50.65
2022-12-18T02:41:36.087Z,50.98
2022-12-18T02:42:36.086Z,49.16
2022-12-18T02:43:36.277Z,49.36
2022-12-18T02:44:36.173Z,49.39
2022-12-18T02:45:36.176Z,48.64
2022-12-18T02:46:36.078Z,48.55
2022-12-18T02:47:36.070Z,49.06
2022-12-18T02:48:36.059Z,49.00
2022-12-18T02:49:36.051Z,51.12
2022-12-18T02:50:36.056Z,50.87
2022-12-18T02:51:36.063Z,48.46
2022-12-18T02:52:36.075Z,49.70
2022-12-18T02:53:36.330Z,47.85
2022-12-18T02:54:36.022Z,49.53
2022-12-18T02:55:36.030Z,48.42
2022-12-18T02:56:36.015Z,49.81
2022-12-18T02:57:36.025Z,48.62
2022-12-18T02:58:36.005Z,49.82
2022-12-18T02:59:36.000Z,50.07
2022-12-18T03:00:36.098Z,49.94
2022-12-18T03:01:36.145Z,48.66
2022-12-18T03:02:36.143Z,48.66
2022-12-18T03:03:36.351Z,50.69
2022-12-18T03:04:35.966Z,48.62
2022-12-18T03:05:35.946Z,48.18
2022-12-18T03:06:35.959Z,50.10
2022-12-18T03:07:35.963Z,50.44
2022-12-18T03:08:35.938Z,50.21
2022-12-18T03:09:35.950Z,48.70
2022-12-18T03:10:35.934Z,49.54
2022-12-18T03:11:35.927Z,49.39
2022-12-18T03:12:35.930Z,50.13
2022-12-18T03:13:36.301Z,49.71
2022-12-18T03:14:35.910Z,49.77
2022-12-18T03:15:35.904Z,49.51
2022-12-18T03:16:36.037Z,49.24
2022-12-18T03:17:36.057Z,50.12
2022-12-18T03:18:35.889Z,50.04
2022-12-18T03:19:35.884Z,51.59
2022-12-18T03:20:35.901Z,49.66
2022-12-18T03:21:35.866Z,51.64
2022-12-18T03:22:35.901Z,50.84
2022-12-18T03:23:35.866Z,50.15
2022-12-18T03:24:36.406Z,48.67
2022-12-18T03:25:35.850Z,48.68
2022-12-18T03:26:35.839Z,49.02
2022-12-18T03:27:35.838Z,48.68
2022-12-18T03:28:35.832Z,49.24
2022-12-18T03:29:35.825Z,50.26
2022-12-18T03:30:35.859Z,50.10
2022-12-18T03:31:35.814Z,49.09
2022-12-18T03:32:35.921Z,49.93
2022-12-18T03:33:36.120Z,49.82
2022-12-18T03:34:35.818Z,50.64
2022-12-18T03:35:35.791Z,48.30
2022-12-18T03:36:35.775Z,50.90
2022-12-18T03:37:35.782Z,49.26
2022-12-18T03:38:35.766Z,48.76
2022-12-18T03:39:35.753Z,48.21
2022-12-18T03:40:35.769Z,49.62
2022-12-18T03:41:35.751Z,51.20
2022-12-18T03:42:35.746Z,50.96
2022-12-18T03:43:35.771Z,49.31
2022-12-18T03:44:35.731Z,50.61
2022-12-18T03:45:35.738Z,51.97
2022-12-18T03:46:35.717Z,50.78
2022-12-18T03:47:35.722Z,50.34
2022-12-18T03:48:35.821Z,53.29
2022-12-18T03:49:35.706Z,50.36
2022-12-18T03:50:35.706Z,50.15
2022-12-18T03:51:35.694Z,49.53
2022-12-18T03:52:35.687Z,48.74
2022-12-18T03:53:35.705Z,50.00
2022-12-18T03:54:35.674Z,50.19
2022-12-18T03:55:35.675Z,50.45
2022-12-18T03:56:35.670Z,50.35
2022-12-18T03:57:35.661Z,51.19
2022-12-18T03:58:35.678Z,50.62
2022-12-18T03:59:35.654Z,51.36
2022-12-18T04:00:35.647Z,51.06
2022-12-18T04:01:35.730Z,49.70
2022-12-18T04:02:35.814Z,50.04
2022-12-18T04:03:36.520Z,51.42
2022-12-18T04:04:36.727Z,51.98
2022-12-18T04:05:35.622Z,51.05
2022-12-18T04:06:35.616Z,49.94
2022-12-18T04:07:36.382Z,51.80
2022-12-18T04:08:35.620Z,49.42
2022-12-18T04:09:35.604Z,49.75
2022-12-18T04:10:35.590Z,51.45
2022-12-18T04:11:35.588Z,51.63
2022-12-18T04:12:35.574Z,50.72
2022-12-18T04:13:35.568Z,53.65
2022-12-18T04:14:35.595Z,49.82
2022-12-18T04:15:35.730Z,49.85
2022-12-18T04:16:35.555Z,49.39
2022-12-18T04:17:35.549Z,50.43
2022-12-18T04:18:35.541Z,50.05
2022-12-18T04:19:35.551Z,49.93
2022-12-18T04:20:35.628Z,48.91
2022-12-18T04:21:35.546Z,49.61
2022-12-18T04:22:35.530Z,49.97
2022-12-18T04:23:35.524Z,51.02
2022-12-18T04:24:35.518Z,52.36
2022-12-18T04:25:35.503Z,49.35
2022-12-18T04:26:35.510Z,49.45
2022-12-18T04:27:35.499Z,50.23
2022-12-18T04:28:35.492Z,50.14
2022-12-18T04:29:35.482Z,49.11
2022-12-18T04:30:35.496Z,49.93
2022-12-18T04:31:35.551Z,49.87
2022-12-18T04:32:35.493Z,49.39
2022-12-18T04:33:35.452Z,50.94
2022-12-18T04:34:35.441Z,52.00
2022-12-18T04:35:35.455Z,50.06
2022-12-18T04:36:35.564Z,50.87
2022-12-18T04:37:35.418Z,50.98
2022-12-18T04:38:35.422Z,50.19
2022-12-18T04:39:35.414Z,49.36
2022-12-18T04:40:35.413Z,51.46
2022-12-18T04:41:35.410Z,51.99
2022-12-18T04:42:35.501Z,51.31
2022-12-18T04:43:35.402Z,52.28
2022-12-18T04:44:35.394Z,53.21
2022-12-18T04:45:35.401Z,48.37
2022-12-18T04:46:35.415Z,50.46
2022-12-18T04:47:35.381Z,52.25
2022-12-18T04:48:35.370Z,51.43
2022-12-18T04:49:35.388Z,50.38
2022-12-18T04:50:35.381Z,53.43
2022-12-18T04:51:35.346Z,49.70
2022-12-18T04:52:35.433Z,48.42
2022-12-18T04:53:35.346Z,50.39
2022-12-18T04:54:35.338Z,50.77
2022-12-18T04:55:35.346Z,49.16
2022-12-18T04:56:35.353Z,52.27
2022-12-18T04:57:35.323Z,53.30
2022-12-18T04:58:35.307Z,49.72
2022-12-18T04:59:35.295Z,51.11
2022-12-18T05:00:35.286Z,48.91
2022-12-18T05:01:35.562Z,49.07
2022-12-18T05:02:35.430Z,51.68
2022-12-18T05:03:35.369Z,51.33
2022-12-18T05:04:35.275Z,49.15
2022-12-18T05:05:35.270Z,48.32
2022-12-18T05:06:35.262Z,50.69
2022-12-18T05:07:35.241Z,49.60
2022-12-18T05:08:35.329Z,49.70
2022-12-18T05:09:35.242Z,51.67
2022-12-18T05:10:38.346Z,49.38
2022-12-18T05:11:36.233Z,52.20
2022-12-18T05:12:35.234Z,50.56
2022-12-18T05:13:35.214Z,49.90
2022-12-18T05:14:35.215Z,48.82
2022-12-18T05:15:35.299Z,50.02
2022-12-18T05:16:35.230Z,49.86
2022-12-18T05:17:35.222Z,50.74
2022-12-18T05:18:35.190Z,50.44
2022-12-18T05:19:35.178Z,53.05
2022-12-18T05:20:35.176Z,52.17
2022-12-18T05:21:35.174Z,50.84
2022-12-18T05:22:35.180Z,48.91
2022-12-18T05:23:35.174Z,49.50
2022-12-18T05:24:35.247Z,50.44
2022-12-18T05:25:35.138Z,49.55
2022-12-18T05:26:35.138Z,52.46
2022-12-18T05:27:35.136Z,51.02
2022-12-18T05:28:35.144Z,49.53
2022-12-18T05:29:35.119Z,50.18
2022-12-18T05:30:35.118Z,52.97
2022-12-18T05:31:39.422Z,51.55
2022-12-18T05:32:36.109Z,51.92
2022-12-18T05:33:35.121Z,51.66
2022-12-18T05:34:35.090Z,53.03
2022-12-18T05:35:35.083Z,50.67
2022-12-18T05:36:35.086Z,51.95
2022-12-18T05:37:41.045Z,50.37
2022-12-18T05:38:37.082Z,52.05
2022-12-18T05:39:35.066Z,52.30
2022-12-18T05:40:35.160Z,51.61
2022-12-18T05:41:35.087Z,51.17
2022-12-18T05:42:35.042Z,51.62
2022-12-18T05:43:35.042Z,52.89
2022-12-18T05:44:35.042Z,48.85
2022-12-18T05:45:35.030Z,50.83
2022-12-18T05:46:35.061Z,53.29
2022-12-18T05:47:35.013Z,52.38
2022-12-18T05:48:35.006Z,54.13
2022-12-18T05:49:35.009Z,51.44
2022-12-18T05:50:34.993Z,49.95
2022-12-18T05:51:34.985Z,52.01
2022-12-18T05:52:34.980Z,53.29
2022-12-18T05:53:34.972Z,51.36
2022-12-18T05:54:34.978Z,49.63
2022-12-18T05:55:34.962Z,49.48
2022-12-18T05:56:35.032Z,52.10
2022-12-18T05:57:35.940Z,50.41
2022-12-18T05:58:35.947Z,52.24
2022-12-18T05:59:34.942Z,50.29
2022-12-18T06:00:34.926Z,48.62
2022-12-18T06:01:35.068Z,51.12
2022-12-18T06:02:34.973Z,50.78
2022-12-18T06:03:35.003Z,50.28
2022-12-18T06:04:34.914Z,53.56
2022-12-18T06:05:34.902Z,51.87
2022-12-18T06:06:34.897Z,51.67
2022-12-18T06:07:34.890Z,53.06
2022-12-18T06:08:34.882Z,55.21
2022-12-18T06:09:34.893Z,49.95
2022-12-18T06:10:34.890Z,50.80
2022-12-18T06:11:34.862Z,50.51
2022-12-18T06:12:34.968Z,49.77
2022-12-18T06:13:34.855Z,50.45
2022-12-18T06:14:34.847Z,50.49
2022-12-18T06:15:34.881Z,49.47
2022-12-18T06:16:34.903Z,50.52
2022-12-18T06:17:35.426Z,51.01
2022-12-18T06:18:34.829Z,52.63
2022-12-18T06:19:34.818Z,53.49
2022-12-18T06:20:34.826Z,51.48
2022-12-18T06:21:34.817Z,49.67
2022-12-18T06:22:34.797Z,53.87
2022-12-18T06:23:34.798Z,54.05
2022-12-18T06:24:34.794Z,53.45
2022-12-18T06:25:34.805Z,52.12
2022-12-18T06:26:34.786Z,50.14
2022-12-18T06:27:34.781Z,50.40
2022-12-18T06:28:34.878Z,50.00
2022-12-18T06:29:34.762Z,52.55
2022-12-18T06:30:34.773Z,51.31
2022-12-18T06:31:34.777Z,52.49
2022-12-18T06:32:34.741Z,53.17
2022-12-18T06:33:34.731Z,51.13
2022-12-18T06:34:34.738Z,54.03
2022-12-18T06:35:34.751Z,50.59
2022-12-18T06:36:34.723Z,55.52
2022-12-18T06:37:34.710Z,50.44
2022-12-18T06:38:34.721Z,49.89
2022-12-18T06:39:34.725Z,50.73
2022-12-18T06:40:34.706Z,48.90
2022-12-18T06:41:34.701Z,50.19
2022-12-18T06:42:34.685Z,51.32
2022-12-18T06:43:34.691Z,53.37
2022-12-18T06:44:34.761Z,52.86
2022-12-18T06:45:34.723Z,50.60
2022-12-18T06:46:34.676Z,51.45
2022-12-18T06:47:34.669Z,51.15
2022-12-18T06:48:34.666Z,50.85
2022-12-18T06:49:34.652Z,49.57
2022-12-18T06:50:34.637Z,52.45
2022-12-18T06:51:34.637Z,50.45
2022-12-18T06:52:34.647Z,52.68
2022-12-18T06:53:34.616Z,53.78
2022-12-18T06:54:34.613Z,53.77
2022-12-18T06:55:34.613Z,52.27
2022-12-18T06:56:34.599Z,51.06
2022-12-18T06:57:34.617Z,50.41
2022-12-18T06:58:34.598Z,51.46
2022-12-18T06:59:34.583Z,54.40
2022-12-18T07:00:34.657Z,53.25
2022-12-18T07:01:35.740Z,53.64
2022-12-18T07:02:34.718Z,53.53
2022-12-18T07:03:35.386Z,51.74
2022-12-18T07:04:34.565Z,50.89
2022-12-18T07:05:34.561Z,51.50
2022-12-18T07:06:34.565Z,52.78
2022-12-18T07:07:34.541Z,54.07
2022-12-18T07:08:34.553Z,54.40
2022-12-18T07:09:34.530Z,50.82
2022-12-18T07:10:34.529Z,51.62
2022-12-18T07:11:34.525Z,52.32
2022-12-18T07:12:34.527Z,53.84
2022-12-18T07:13:34.514Z,52.58
2022-12-18T07:14:34.507Z,52.32
2022-12-18T07:15:34.487Z,51.87
2022-12-18T07:16:34.638Z,53.53
2022-12-18T07:17:34.477Z,50.96
2022-12-18T07:18:34.477Z,52.12
2022-12-18T07:19:34.466Z,57.16
2022-12-18T07:20:34.461Z,52.38
2022-12-18T07:21:34.455Z,51.17
2022-12-18T07:22:34.445Z,54.10
2022-12-18T07:23:34.465Z,52.53
2022-12-18T07:24:34.469Z,53.74
2022-12-18T07:25:34.426Z,52.84
2022-12-18T07:26:34.417Z,54.00
2022-12-18T07:27:34.413Z,52.72
2022-12-18T07:28:34.406Z,51.75
2022-12-18T07:29:34.421Z,52.95
2022-12-18T07:30:34.403Z,54.92
2022-12-18T07:31:34.462Z,55.77
2022-12-18T07:32:34.478Z,54.44
2022-12-18T07:33:34.386Z,51.74
2022-12-18T07:34:34.389Z,50.63
2022-12-18T07:35:34.367Z,54.15
2022-12-18T07:36:34.365Z,51.14
2022-12-18T07:37:34.352Z,53.34
2022-12-18T07:38:34.351Z,53.67
2022-12-18T07:39:34.353Z,56.99
2022-12-18T07:40:34.341Z,55.25
2022-12-18T07:41:34.339Z,58.12
2022-12-18T07:42:34.334Z,55.15
2022-12-18T07:43:34.338Z,56.48
2022-12-18T07:44:34.313Z,54.97
2022-12-18T07:45:34.352Z,54.73
2022-12-18T07:46:34.337Z,53.47
2022-12-18T07:47:34.302Z,54.41
2022-12-18T07:48:34.445Z,51.28
2022-12-18T07:49:34.296Z,55.45
2022-12-18T07:50:34.313Z,52.88
2022-12-18T07:51:34.281Z,54.75
2022-12-18T07:52:34.266Z,53.41
2022-12-18T07:53:34.272Z,51.55
2022-12-18T07:54:34.253Z,54.68
2022-12-18T07:55:54.703Z,53.79
2022-12-18T07:56:36.250Z,54.40
2022-12-18T07:57:50.181Z,53.19
2022-12-18T07:58:36.238Z,54.55
2022-12-18T07:59:34.230Z,55.02
2022-12-18T08:00:34.222Z,54.14
2022-12-18T08:01:34.335Z,54.71
2022-12-18T08:02:34.404Z,54.78
2022-12-18T08:03:34.209Z,55.27
2022-12-18T08:04:34.299Z,51.41
2022-12-18T08:05:34.212Z,56.46
2022-12-18T08:06:34.213Z,57.48
2022-12-18T08:07:34.181Z,54.55
2022-12-18T08:08:34.182Z,56.26
2022-12-18T08:09:34.165Z,54.25
2022-12-18T08:10:34.156Z,55.44
2022-12-18T08:11:34.183Z,53.41
2022-12-18T08:12:34.164Z,58.58
2022-12-18T08:13:35.161Z,53.58
2022-12-18T08:14:34.155Z,54.44
2022-12-18T08:15:34.221Z,54.38
2022-12-18T08:16:34.234Z,57.28
2022-12-18T08:17:34.156Z,56.37
2022-12-18T08:18:34.121Z,53.62
2022-12-18T08:19:34.115Z,54.00
2022-12-18T08:20:35.210Z,53.87
2022-12-18T08:21:34.111Z,55.69
2022-12-18T08:22:34.095Z,55.69
2022-12-18T08:23:37.976Z,56.16
2022-12-18T08:24:35.111Z,56.43
2022-12-18T08:25:34.095Z,58.13
2022-12-18T08:26:34.093Z,54.61
2022-12-18T08:27:34.126Z,54.34
2022-12-18T08:28:34.118Z,54.97
2022-12-18T08:29:34.055Z,54.41
2022-12-18T08:30:34.111Z,54.74
2022-12-18T08:31:34.132Z,52.28
2022-12-18T08:32:34.033Z,55.75
2022-12-18T08:33:34.038Z,53.97
2022-12-18T08:34:34.029Z,53.18
2022-12-18T08:35:37.882Z,54.54
2022-12-18T08:36:36.097Z,54.64
2022-12-18T08:37:34.055Z,55.48
2022-12-18T08:38:34.001Z,54.88
2022-12-18T08:39:33.990Z,54.45
2022-12-18T08:40:33.970Z,54.44
2022-12-18T08:41:33.980Z,54.69
2022-12-18T08:42:33.978Z,53.85
2022-12-18T08:43:33.957Z,52.88
2022-12-18T08:44:33.961Z,55.93
2022-12-18T08:45:33.950Z,55.79
2022-12-18T08:46:34.057Z,55.35
2022-12-18T08:47:33.939Z,54.01
2022-12-18T08:48:33.942Z,53.99
2022-12-18T08:49:33.940Z,53.26
2022-12-18T08:50:33.915Z,51.91
2022-12-18T08:51:33.907Z,52.23
2022-12-18T08:52:39.824Z,53.19
2022-12-18T08:53:35.874Z,51.85
2022-12-18T08:54:34.895Z,53.32
2022-12-18T08:55:33.876Z,55.70
2022-12-18T08:56:33.870Z,53.22
2022-12-18T08:57:33.872Z,53.97
2022-12-18T08:58:33.861Z,56.53
2022-12-18T08:59:33.868Z,55.82
2022-12-18T09:00:33.851Z,55.87
2022-12-18T09:01:34.015Z,54.48
2022-12-18T09:02:34.030Z,54.95
2022-12-18T09:03:33.914Z,53.07
2022-12-18T09:04:33.857Z,52.77
2022-12-18T09:05:33.815Z,53.07
2022-12-18T09:06:33.807Z,52.26
2022-12-18T09:07:33.804Z,51.11
2022-12-18T09:08:33.786Z,52.42
2022-12-18T09:09:33.865Z,52.40
2022-12-18T09:10:36.504Z,51.81
2022-12-18T09:11:34.776Z,52.16
2022-12-18T09:12:33.791Z,52.41
2022-12-18T09:13:33.755Z,55.42
2022-12-18T09:14:33.751Z,53.49
2022-12-18T09:15:33.756Z,51.78
2022-12-18T09:16:33.814Z,50.96
2022-12-18T09:17:33.731Z,54.32
2022-12-18T09:18:33.725Z,54.84
2022-12-18T09:19:33.719Z,56.33
2022-12-18T09:20:33.738Z,56.06
2022-12-18T09:21:35.796Z,53.11
2022-12-18T09:22:33.687Z,54.44
2022-12-18T09:23:33.678Z,54.56
2022-12-18T09:24:33.676Z,54.29
2022-12-18T09:25:33.773Z,54.91
2022-12-18T09:26:33.688Z,55.48
2022-12-18T09:27:33.646Z,54.70
2022-12-18T09:28:33.642Z,55.48
2022-12-18T09:29:33.662Z,55.85
2022-12-18T09:30:33.657Z,54.04
2022-12-18T09:31:33.645Z,55.26
2022-12-18T09:32:33.615Z,53.99
2022-12-18T09:33:33.606Z,53.89
2022-12-18T09:34:33.610Z,55.63
2022-12-18T09:35:33.644Z,52.38
2022-12-18T09:36:33.783Z,52.12
2022-12-18T09:37:33.591Z,52.66
2022-12-18T09:38:33.562Z,54.44
2022-12-18T09:39:33.567Z,53.88
2022-12-18T09:40:34.158Z,53.84
2022-12-18T09:41:33.646Z,54.25
2022-12-18T09:42:33.566Z,52.10
2022-12-18T09:43:33.546Z,55.70
2022-12-18T09:44:33.543Z,55.26
2022-12-18T09:45:33.527Z,61.19
2022-12-18T09:46:33.612Z,54.90
2022-12-18T09:47:33.522Z,53.33
2022-12-18T09:48:33.515Z,54.86
2022-12-18T09:49:33.506Z,53.09
2022-12-18T09:50:33.482Z,51.96
2022-12-18T09:51:33.490Z,56.88
2022-12-18T09:52:33.471Z,55.70
2022-12-18T09:53:33.483Z,57.81
2022-12-18T09:54:33.467Z,57.01
2022-12-18T09:55:37.147Z,57.38
2022-12-18T09:56:34.458Z,57.21
2022-12-18T09:57:33.533Z,56.11
2022-12-18T09:58:33.459Z,57.40
2022-12-18T09:59:33.443Z,57.51
2022-12-18T10:00:33.427Z,55.92
2022-12-18T10:01:41.528Z,53.48
2022-12-18T10:02:35.485Z,51.54
2022-12-18T10:03:33.418Z,52.30
2022-12-18T10:04:33.481Z,52.43
2022-12-18T10:05:33.384Z,53.13
2022-12-18T10:06:33.386Z,51.88
2022-12-18T10:07:33.381Z,51.66
2022-12-18T10:08:33.390Z,53.71
2022-12-18T10:09:33.381Z,52.44
2022-12-18T10:10:33.359Z,51.67
2022-12-18T10:11:33.342Z,51.73
2022-12-18T10:12:33.339Z,51.60
2022-12-18T10:13:33.431Z,52.78
2022-12-18T10:14:33.332Z,52.05
2022-12-18T10:15:33.377Z,52.97
2022-12-18T10:16:33.325Z,54.06
2022-12-18T10:17:33.308Z,53.20
2022-12-18T10:18:33.306Z,53.32
2022-12-18T10:19:33.291Z,52.89
2022-12-18T10:20:33.322Z,52.56
2022-12-18T10:21:34.282Z,53.74
2022-12-18T10:22:33.276Z,52.71
2022-12-18T10:23:33.263Z,53.30
2022-12-18T10:24:33.264Z,52.92
2022-12-18T10:25:33.253Z,54.40
2022-12-18T10:26:34.242Z,55.55
2022-12-18T10:27:33.239Z,54.52
2022-12-18T10:28:33.230Z,54.81
2022-12-18T10:29:39.113Z,54.41
2022-12-18T10:30:34.322Z,54.82
2022-12-18T10:31:33.238Z,54.44
2022-12-18T10:32:33.192Z,53.78
2022-12-18T10:33:33.198Z,53.33
2022-12-18T10:34:33.191Z,53.93
2022-12-18T10:35:33.168Z,55.18
2022-12-18T10:36:33.222Z,56.57
2022-12-18T10:37:33.166Z,57.32
2022-12-18T10:38:33.157Z,55.15
2022-12-18T10:39:33.157Z,55.40
2022-12-18T10:40:34.433Z,55.46
2022-12-18T10:41:33.134Z,54.86
2022-12-18T10:42:33.130Z,54.45
2022-12-18T10:43:33.126Z,54.93
2022-12-18T10:44:33.119Z,54.81
2022-12-18T10:45:33.111Z,56.08
2022-12-18T10:46:39.206Z,54.48
2022-12-18T10:47:34.185Z,55.03
2022-12-18T10:48:33.090Z,54.59
2022-12-18T10:49:33.091Z,54.12
2022-12-18T10:51:01.817Z,54.24
2022-12-18T10:51:35.069Z,53.80
2022-12-18T10:52:33.069Z,54.55
2022-12-18T10:53:33.050Z,54.02
2022-12-18T10:54:34.049Z,53.89
2022-12-18T10:55:33.033Z,53.27
2022-12-18T10:56:33.023Z,54.34
2022-12-18T10:57:33.042Z,53.10
2022-12-18T10:58:33.015Z,54.11
2022-12-18T10:59:32.998Z,53.24
2022-12-18T11:00:32.989Z,54.35
2022-12-18T11:01:33.086Z,54.73
2022-12-18T11:02:33.227Z,55.39
2022-12-18T11:03:33.161Z,55.09
2022-12-18T11:04:33.051Z,54.05
2022-12-18T11:05:32.981Z,52.98
2022-12-18T11:06:32.954Z,51.65
2022-12-18T11:07:32.958Z,54.16
2022-12-18T11:08:32.943Z,54.12
2022-12-18T11:09:32.953Z,53.06
2022-12-18T11:10:32.930Z,54.46
2022-12-18T11:11:32.914Z,55.87
2022-12-18T11:12:32.908Z,54.71
2022-12-18T11:13:32.907Z,54.80
2022-12-18T11:14:33.037Z,54.26
2022-12-18T11:15:32.895Z,54.38
2022-12-18T11:16:32.927Z,55.82
2022-12-18T11:17:32.877Z,55.09
2022-12-18T11:18:32.875Z,56.85
2022-12-18T11:19:32.974Z,53.92
2022-12-18T11:20:32.868Z,54.25
2022-12-18T11:21:32.873Z,53.75
2022-12-18T11:22:32.837Z,55.55
2022-12-18T11:23:32.838Z,56.28
2022-12-18T11:24:32.834Z,55.67
2022-12-18T11:25:34.627Z,54.40
2022-12-18T11:26:32.815Z,56.84
2022-12-18T11:27:32.797Z,56.33
2022-12-18T11:28:32.807Z,55.88
2022-12-18T11:29:32.821Z,56.44
2022-12-18T11:30:32.787Z,56.73
2022-12-18T11:31:32.899Z,56.86
2022-12-18T11:32:32.778Z,57.45
2022-12-18T11:33:32.764Z,56.63
2022-12-18T11:34:32.784Z,54.98
2022-12-18T11:35:32.852Z,55.57
2022-12-18T11:36:32.818Z,55.43
2022-12-18T11:37:32.747Z,56.44
2022-12-18T11:38:32.736Z,57.18
2022-12-18T11:39:32.727Z,57.54
2022-12-18T11:40:36.524Z,56.81
2022-12-18T11:41:34.727Z,56.51
2022-12-18T11:42:32.712Z,57.02
2022-12-18T11:43:32.706Z,56.74
2022-12-18T11:44:32.691Z,56.11
2022-12-18T11:45:32.676Z,57.02
2022-12-18T11:46:33.709Z,57.00
2022-12-18T11:47:32.728Z,58.21
2022-12-18T11:48:32.667Z,56.17
2022-12-18T11:49:32.663Z,57.17
2022-12-18T11:50:32.650Z,57.98
2022-12-18T11:51:32.733Z,57.51
2022-12-18T11:52:32.708Z,57.96
2022-12-18T11:53:32.631Z,57.23
2022-12-18T11:54:32.624Z,55.89
2022-12-18T11:55:32.615Z,55.25
2022-12-18T11:56:32.615Z,53.81
2022-12-18T11:57:32.643Z,53.71
2022-12-18T11:58:32.603Z,55.04
2022-12-18T11:59:32.587Z,54.74
2022-12-18T12:00:32.583Z,54.84
2022-12-18T12:01:32.601Z,55.42
2022-12-18T12:02:32.745Z,54.46
2022-12-18T12:03:32.624Z,54.27
2022-12-18T12:04:32.638Z,54.40
2022-12-18T12:05:32.538Z,55.59
2022-12-18T12:06:32.533Z,55.18
2022-12-18T12:07:32.620Z,55.01
2022-12-18T12:08:32.534Z,54.44
2022-12-18T12:09:32.512Z,54.24
2022-12-18T12:10:32.505Z,54.40
2022-12-18T12:11:32.497Z,54.62
2022-12-18T12:12:32.496Z,55.86
2022-12-18T12:13:32.515Z,55.61
2022-12-18T12:14:32.476Z,54.09
2022-12-18T12:15:32.465Z,55.43
2022-12-18T12:16:32.538Z,55.03
2022-12-18T12:17:32.462Z,55.24
2022-12-18T12:18:32.481Z,55.73
2022-12-18T12:19:32.440Z,55.00
2022-12-18T12:20:35.961Z,54.99
2022-12-18T12:21:33.434Z,58.00
2022-12-18T12:22:32.430Z,58.88
2022-12-18T12:23:32.516Z,56.60
2022-12-18T12:24:32.413Z,58.47
2022-12-18T12:25:32.397Z,57.24
2022-12-18T12:26:32.402Z,57.24
2022-12-18T12:27:32.395Z,56.12
2022-12-18T12:28:32.390Z,58.14
2022-12-18T12:29:32.373Z,58.32
2022-12-18T12:30:32.377Z,58.06
2022-12-18T12:31:32.429Z,58.22
2022-12-18T12:32:32.357Z,57.95
2022-12-18T12:33:32.362Z,57.54
2022-12-18T12:34:32.338Z,58.86
2022-12-18T12:35:32.337Z,57.85
2022-12-18T12:36:32.331Z,57.81
2022-12-18T12:37:32.325Z,58.65
2022-12-18T12:38:32.314Z,58.48
2022-12-18T12:39:32.413Z,58.68
2022-12-18T12:41:34.306Z,58.89
2022-12-18T12:42:32.288Z,60.14
2022-12-18T12:43:32.282Z,58.54
2022-12-18T12:44:32.289Z,59.85
2022-12-18T12:45:32.408Z,58.43
2022-12-18T12:46:32.278Z,59.73
2022-12-18T12:47:32.253Z,60.94
2022-12-18T12:48:32.256Z,59.39
2022-12-18T12:49:34.274Z,59.68
2022-12-18T12:50:33.241Z,60.87
2022-12-18T12:51:32.246Z,60.33
2022-12-18T12:52:32.213Z,59.60
2022-12-18T12:53:32.217Z,59.62